createdAt,value
2022-10-23T00:00:41.763Z,6.65
2022-10-23T00:05:41.440Z,5.90
2022-10-23T00:08:09.557Z,5.82
2022-10-23T00:10:37.371Z,6.82
2022-10-23T00:13:06.459Z,7.38
2022-10-23T00:15:36.758Z,7.68
2022-10-23T00:18:05.111Z,6.03
2022-10-23T00:20:32.809Z,6.28
2022-10-23T00:23:00.568Z,5.03
2022-10-23T00:25:28.335Z,6.30
2022-10-23T00:27:56.071Z,5.60
2022-10-23T00:30:25.246Z,5.97
2022-10-23T00:32:53.029Z,6.82
2022-10-23T00:35:20.782Z,5.63
2022-10-23T00:37:48.643Z,5.07
2022-10-23T00:40:16.412Z,5.50
2022-10-23T00:42:44.378Z,5.85
2022-10-23T00:45:20.714Z,5.88
2022-10-23T00:47:50.264Z,5.82
2022-10-23T00:50:18.506Z,5.00
2022-10-23T00:52:49.572Z,6.38
2022-10-23T00:55:19.302Z,6.50
2022-10-23T00:57:48.999Z,4.70
2022-10-23T01:00:20.641Z,5.93
2022-10-23T01:02:50.186Z,6.90
2022-10-23T01:05:18.621Z,6.18
2022-10-23T01:07:53.829Z,5.57
2022-10-23T01:10:31.482Z,4.93
2022-10-23T01:13:04.944Z,5.00
2022-10-23T01:15:38.491Z,6.10
2022-10-23T01:18:17.984Z,5.90
2022-10-23T01:20:49.325Z,6.40
2022-10-23T01:23:55.060Z,5.70
2022-10-23T01:26:50.278Z,6.18
2022-10-23T01:29:25.661Z,5.20
2022-10-23T01:32:00.002Z,7.63
2022-10-23T01:34:33.137Z,6.00
2022-10-23T01:37:03.267Z,5.63
2022-10-23T01:39:36.957Z,6.78
2022-10-23T01:42:09.703Z,6.57
2022-10-23T01:44:43.798Z,6.75
2022-10-23T01:47:14.177Z,6.35
2022-10-23T01:49:43.886Z,6.43
2022-10-23T01:52:15.131Z,6.72
2022-10-23T01:54:45.854Z,6.25
2022-10-23T01:57:17.882Z,6.40
2022-10-23T01:59:50.739Z,6.80
2022-10-23T02:02:20.115Z,6.03
2022-10-23T02:04:57.503Z,6.60
2022-10-23T02:07:25.657Z,6.38
2022-10-23T02:09:53.672Z,7.00
2022-10-23T02:15:07.203Z,6.03
2022-10-23T02:17:47.275Z,5.72
2022-10-23T02:20:21.252Z,5.75
2022-10-23T02:22:58.565Z,6.50
2022-10-23T02:25:33.292Z,6.43
2022-10-23T02:30:36.690Z,6.60
2022-10-23T02:33:06.330Z,5.80
2022-10-23T02:35:34.305Z,6.28
2022-10-23T02:40:36.897Z,5.70
2022-10-23T02:45:46.216Z,5.20
2022-10-23T02:48:20.178Z,6.60
2022-10-23T02:51:01.905Z,5.82
2022-10-23T02:53:38.287Z,5.70
2022-10-23T02:56:14.191Z,5.50
2022-10-23T02:58:46.833Z,5.90
2022-10-23T03:01:19.163Z,6.53
2022-10-23T03:03:52.549Z,6.68
2022-10-23T03:06:20.659Z,5.85
2022-10-23T03:08:53.430Z,5.97
2022-10-23T03:11:21.230Z,6.15
2022-10-23T03:13:48.969Z,5.72
2022-10-23T03:16:18.000Z,6.07
2022-10-23T03:18:45.666Z,6.55
2022-10-23T03:21:13.469Z,5.50
2022-10-23T03:23:41.233Z,6.07
2022-10-23T03:26:09.128Z,6.72
2022-10-23T03:28:36.855Z,5.60
2022-10-23T03:31:05.191Z,6.63
2022-10-23T03:33:34.236Z,6.68
2022-10-23T03:36:02.004Z,6.28
2022-10-23T03:38:29.926Z,5.97
2022-10-23T03:40:57.616Z,6.03
2022-10-23T03:43:25.294Z,5.65
2022-10-23T03:45:53.049Z,5.57
2022-10-23T03:48:20.737Z,6.45
2022-10-23T03:50:49.922Z,5.85
2022-10-23T03:53:17.646Z,5.85
2022-10-23T03:55:45.939Z,6.50
2022-10-23T03:58:13.720Z,5.60
2022-10-23T04:03:14.139Z,5.50
2022-10-23T04:05:42.133Z,5.65
2022-10-23T04:10:41.871Z,5.82
2022-10-23T04:13:09.580Z,5.30
2022-10-23T04:15:37.326Z,5.68
2022-10-23T04:18:05.419Z,5.63
2022-10-23T04:23:00.760Z,6.10
2022-10-23T04:25:29.873Z,5.53
2022-10-23T04:27:57.505Z,5.55
2022-10-23T04:30:25.194Z,5.55
2022-10-23T04:32:53.305Z,6.03
2022-10-23T04:37:48.951Z,5.32
2022-10-23T04:40:16.781Z,5.00
2022-10-23T04:42:45.878Z,4.95
2022-10-23T04:45:13.735Z,5.40
2022-10-23T04:47:41.377Z,5.03
2022-10-23T04:50:09.308Z,5.38
2022-10-23T04:52:37.011Z,5.90
2022-10-23T04:55:05.347Z,5.60
2022-10-23T04:57:33.063Z,5.43
2022-10-23T05:00:02.349Z,5.43
2022-10-23T05:02:30.098Z,5.32
2022-10-23T05:04:57.799Z,5.57
2022-10-23T05:07:25.505Z,4.68
2022-10-23T05:09:53.245Z,4.88
2022-10-23T05:12:20.937Z,4.93
2022-10-23T05:14:48.650Z,5.45
2022-10-23T05:17:22.537Z,5.60
2022-10-23T05:19:54.531Z,6.15
2022-10-23T05:22:25.243Z,5.20
2022-10-23T05:24:53.219Z,5.28
2022-10-23T05:27:21.023Z,5.40
2022-10-23T05:29:51.871Z,5.13
2022-10-23T05:34:54.537Z,5.60
2022-10-23T05:37:22.743Z,4.88
2022-10-23T05:39:50.460Z,4.60
2022-10-23T05:42:18.246Z,5.45
2022-10-23T05:44:45.969Z,5.57
2022-10-23T05:47:13.683Z,5.00
2022-10-23T05:49:42.811Z,5.40
2022-10-23T05:52:12.111Z,5.15
2022-10-23T05:54:39.906Z,4.72
2022-10-23T05:57:07.762Z,4.70
2022-10-23T05:59:35.545Z,5.28
2022-10-23T06:02:03.359Z,4.22
2022-10-23T06:04:31.251Z,5.50
2022-10-23T06:07:00.299Z,5.30
2022-10-23T06:09:27.993Z,4.65
2022-10-23T06:11:55.695Z,5.93
2022-10-23T06:14:23.379Z,5.43
2022-10-23T06:16:51.117Z,5.28
2022-10-23T06:19:18.801Z,6.32
2022-10-23T06:21:46.553Z,5.07
2022-10-23T06:24:15.669Z,5.20
2022-10-23T06:26:43.300Z,5.07
2022-10-23T06:29:10.993Z,5.82
2022-10-23T06:31:38.669Z,5.53
2022-10-23T06:34:07.059Z,5.15
2022-10-23T06:36:34.964Z,5.70
2022-10-23T06:39:02.628Z,5.22
2022-10-23T06:41:31.750Z,5.28
2022-10-23T06:43:59.407Z,5.57
2022-10-23T06:46:29.854Z,5.00
2022-10-23T06:48:57.497Z,5.57
2022-10-23T06:51:29.578Z,5.97
2022-10-23T06:53:57.848Z,5.28
2022-10-23T06:56:29.383Z,5.25
2022-10-23T06:58:58.483Z,5.25
2022-10-23T07:01:26.409Z,5.55
2022-10-23T07:06:21.689Z,4.88
2022-10-23T07:08:49.654Z,5.78
2022-10-23T07:13:46.706Z,4.65
2022-10-23T07:16:17.877Z,5.25
2022-10-23T07:18:45.999Z,5.35
2022-10-23T07:21:13.788Z,4.93
2022-10-23T07:23:41.549Z,5.30
2022-10-23T07:26:12.075Z,4.90
2022-10-23T07:28:41.379Z,5.38
2022-10-23T07:31:09.659Z,5.82
2022-10-23T07:33:39.741Z,6.15
2022-10-23T07:36:09.228Z,5.63
2022-10-23T07:38:37.260Z,5.22
2022-10-23T07:43:36.741Z,5.28
2022-10-23T07:46:04.868Z,5.47
2022-10-23T07:48:32.569Z,5.03
2022-10-23T07:51:03.559Z,5.90
2022-10-23T07:53:31.338Z,5.47
2022-10-23T07:56:01.258Z,5.43
2022-10-23T07:58:29.942Z,5.72
2022-10-23T08:00:59.451Z,5.40
2022-10-23T08:03:27.185Z,6.38
2022-10-23T08:05:55.737Z,5.20
2022-10-23T08:08:25.367Z,5.25
2022-10-23T08:10:55.100Z,5.18
2022-10-23T08:13:23.269Z,5.30
2022-10-23T08:15:53.074Z,5.78
2022-10-23T08:18:21.060Z,5.18
2022-10-23T08:23:20.248Z,6.22
2022-10-23T08:25:49.396Z,5.55
2022-10-23T08:28:17.013Z,5.53
2022-10-23T08:30:44.708Z,5.30
2022-10-23T08:33:12.458Z,4.60
2022-10-23T08:35:40.608Z,5.80
2022-10-23T08:38:08.370Z,5.22
2022-10-23T08:40:36.862Z,5.72
2022-10-23T08:43:14.223Z,5.65
2022-10-23T08:45:46.218Z,5.20
2022-10-23T08:48:20.146Z,4.63
2022-10-23T08:50:54.005Z,5.32
2022-10-23T08:53:27.329Z,4.93
2022-10-23T08:56:02.189Z,5.50
2022-10-23T08:58:37.310Z,5.18
2022-10-23T09:01:27.805Z,5.07
2022-10-23T09:03:55.648Z,4.90
2022-10-23T09:06:37.875Z,4.03
2022-10-23T09:09:37.301Z,5.13
2022-10-23T09:12:10.195Z,4.53
2022-10-23T09:15:13.867Z,5.07
2022-10-23T09:17:44.024Z,4.57
2022-10-23T09:20:21.510Z,4.32
2022-10-23T09:22:50.852Z,3.90
2022-10-23T09:25:21.174Z,4.20
2022-10-23T09:27:56.165Z,4.82
2022-10-23T09:30:35.019Z,4.25
2022-10-23T09:33:15.102Z,4.47
2022-10-23T09:35:54.573Z,3.60
2022-10-23T09:38:28.870Z,4.47
2022-10-23T09:40:57.076Z,4.20
2022-10-23T09:43:27.483Z,4.20
2022-10-23T09:46:01.857Z,3.50
2022-10-23T09:48:29.900Z,3.90
2022-10-23T09:50:59.444Z,4.47
2022-10-23T09:53:34.941Z,4.05
2022-10-23T09:56:04.995Z,4.03
2022-10-23T09:58:35.813Z,3.53
2022-10-23T10:01:05.825Z,4.00
2022-10-23T10:03:33.637Z,3.85
2022-10-23T10:06:02.857Z,4.28
2022-10-23T10:08:40.306Z,3.58
2022-10-23T10:11:15.509Z,3.35
2022-10-23T10:14:02.609Z,4.20
2022-10-23T10:16:43.969Z,3.92
2022-10-23T10:21:53.994Z,3.25
2022-10-23T10:24:26.011Z,3.28
2022-10-23T10:27:02.637Z,3.25
2022-10-23T10:29:45.731Z,3.72
2022-10-23T10:32:32.093Z,3.22
2022-10-23T10:35:20.437Z,3.50
2022-10-23T10:38:12.589Z,3.20
2022-10-23T10:40:43.727Z,3.15
2022-10-23T10:43:30.660Z,3.30
2022-10-23T10:46:05.044Z,2.78
2022-10-23T10:48:43.248Z,3.20
2022-10-23T10:51:19.501Z,3.08
2022-10-23T10:54:02.480Z,3.15
2022-10-23T10:56:34.868Z,3.20
2022-10-23T10:59:06.942Z,3.17
2022-10-23T11:01:38.309Z,3.65
2022-10-23T11:04:14.827Z,3.33
2022-10-23T11:06:47.226Z,3.75
2022-10-23T11:09:20.927Z,3.35
2022-10-23T11:11:49.875Z,3.08
2022-10-23T11:14:18.681Z,3.10
2022-10-23T11:16:48.979Z,3.22
2022-10-23T11:19:24.731Z,3.40
2022-10-23T11:21:59.387Z,3.28
2022-10-23T11:24:57.343Z,3.75
2022-10-23T11:27:42.519Z,3.15
2022-10-23T11:30:31.733Z,2.70
2022-10-23T11:33:46.816Z,2.75
2022-10-23T11:36:19.276Z,2.83
2022-10-23T11:38:50.068Z,3.13
2022-10-23T11:41:25.358Z,3.20
2022-10-23T11:43:56.972Z,3.13
2022-10-23T11:46:33.241Z,3.55
2022-10-23T11:49:03.134Z,3.10
2022-10-23T11:51:34.812Z,3.03
2022-10-23T11:54:24.332Z,2.70
2022-10-23T11:56:55.649Z,2.97
2022-10-23T11:59:28.931Z,2.83
2022-10-23T12:01:59.079Z,2.63
2022-10-23T12:04:31.632Z,2.80
2022-10-23T12:07:02.756Z,2.55
2022-10-23T12:09:37.352Z,2.45
2022-10-23T12:12:17.887Z,2.72
2022-10-23T12:14:46.905Z,3.10
2022-10-23T12:17:36.895Z,2.45
2022-10-23T12:20:23.760Z,2.53
2022-10-23T12:23:04.069Z,2.97
2022-10-23T12:25:44.485Z,3.00
2022-10-23T12:28:25.716Z,3.35
2022-10-23T12:33:34.136Z,2.45
2022-10-23T12:36:17.868Z,3.22
2022-10-23T12:38:49.726Z,2.58
2022-10-23T12:41:20.103Z,2.92
2022-10-23T12:43:53.919Z,3.05
2022-10-23T12:46:32.461Z,3.05
2022-10-23T12:49:01.145Z,2.83
2022-10-23T12:51:30.334Z,3.05
2022-10-23T12:53:59.469Z,2.85
2022-10-23T12:56:29.489Z,2.60
2022-10-23T12:59:01.394Z,3.17
2022-10-23T13:01:30.973Z,2.78
2022-10-23T13:04:03.575Z,2.38
2022-10-23T13:06:31.309Z,2.67
2022-10-23T13:11:29.568Z,2.85
2022-10-23T13:13:57.201Z,2.90
2022-10-23T13:16:26.947Z,2.90
2022-10-23T13:18:54.610Z,2.75
2022-10-23T13:23:51.719Z,2.50
2022-10-23T13:26:49.920Z,2.92
2022-10-23T13:29:21.698Z,3.13
2022-10-23T13:31:50.016Z,3.03
2022-10-23T13:34:23.058Z,2.80
2022-10-23T13:37:02.487Z,2.60
2022-10-23T13:39:33.028Z,2.83
2022-10-23T13:42:13.380Z,2.53
2022-10-23T13:44:41.615Z,4.50
2022-10-23T13:47:13.389Z,5.90
2022-10-23T13:49:41.100Z,3.63
2022-10-23T13:54:38.318Z,2.40
2022-10-23T13:57:13.799Z,3.00
2022-10-23T13:59:41.442Z,2.70
2022-10-23T14:02:19.010Z,2.80
2022-10-23T14:04:47.213Z,3.03
2022-10-23T14:07:15.109Z,3.03
2022-10-23T14:09:42.738Z,2.60
2022-10-23T14:14:41.205Z,2.47
2022-10-23T14:17:08.855Z,3.40
2022-10-23T14:22:04.963Z,2.35
2022-10-23T14:27:00.053Z,2.40
2022-10-23T14:29:29.162Z,2.72
2022-10-23T14:31:56.765Z,2.58
2022-10-23T14:34:24.385Z,2.72
2022-10-23T14:39:36.565Z,2.65
2022-10-23T14:42:04.207Z,3.17
2022-10-23T14:47:00.826Z,2.85
2022-10-23T14:49:28.450Z,2.92
2022-10-23T14:51:56.129Z,2.30
2022-10-23T14:56:51.253Z,2.60
2022-10-23T14:59:18.884Z,2.88
2022-10-23T15:01:48.624Z,2.92
2022-10-23T15:04:17.029Z,2.75
2022-10-23T15:06:46.651Z,2.75
2022-10-23T15:09:14.902Z,2.90
2022-10-23T15:11:42.754Z,2.88
2022-10-23T15:14:10.389Z,2.80
2022-10-23T15:19:17.371Z,3.15
2022-10-23T15:21:46.735Z,2.50
2022-10-23T15:24:14.654Z,2.88
2022-10-23T15:26:43.286Z,2.80
2022-10-23T15:29:12.149Z,3.00
2022-10-23T15:31:58.828Z,3.00
2022-10-23T15:34:33.177Z,3.08
2022-10-23T15:37:01.045Z,3.15
2022-10-23T15:39:48.344Z,3.05
2022-10-23T15:42:15.991Z,3.70
2022-10-23T15:44:43.615Z,3.08
2022-10-23T15:47:11.336Z,3.05
2022-10-23T15:54:36.686Z,3.13
2022-10-23T15:57:05.498Z,2.72
2022-10-23T15:59:33.432Z,2.95
2022-10-23T16:02:01.185Z,3.50
2022-10-23T16:04:29.530Z,2.90
2022-10-23T16:06:58.514Z,3.40
2022-10-23T16:09:26.147Z,3.20
2022-10-23T16:11:53.782Z,3.20
2022-10-23T16:14:21.441Z,3.60
2022-10-23T16:16:49.156Z,3.40
2022-10-23T16:21:44.229Z,3.40
2022-10-23T16:24:13.384Z,3.20
2022-10-23T16:26:41.984Z,3.60
2022-10-23T16:29:10.282Z,3.40
2022-10-23T16:31:38.157Z,3.58
2022-10-23T16:34:06.728Z,3.55
2022-10-23T16:36:35.406Z,4.00
2022-10-23T16:39:03.743Z,3.17
2022-10-23T16:41:32.805Z,3.38
2022-10-23T16:46:36.347Z,3.25
2022-10-23T16:49:04.540Z,3.50
2022-10-23T16:51:42.910Z,3.28
2022-10-23T16:54:11.235Z,3.20
2022-10-23T16:59:47.563Z,2.85
2022-10-23T17:02:18.669Z,3.08
2022-10-23T17:05:25.315Z,3.13
2022-10-23T17:07:53.148Z,2.80
2022-10-23T17:10:21.021Z,2.95
2022-10-23T17:12:51.973Z,3.30
2022-10-23T17:15:22.266Z,3.17
2022-10-23T17:17:50.103Z,2.90
2022-10-23T17:20:18.091Z,3.13
2022-10-23T17:22:46.060Z,3.20
2022-10-23T17:25:13.822Z,3.22
2022-10-23T17:30:12.867Z,2.78
2022-10-23T17:32:42.578Z,3.00
2022-10-23T17:35:11.545Z,3.63
2022-10-23T17:37:39.721Z,3.33
2022-10-23T17:40:08.733Z,2.90
2022-10-23T17:42:36.853Z,3.28
2022-10-23T17:45:05.119Z,3.10
2022-10-23T17:47:33.361Z,3.70
2022-10-23T17:50:03.419Z,2.88
2022-10-23T17:52:31.612Z,3.03
2022-10-23T17:54:59.646Z,2.92
2022-10-23T17:57:27.614Z,2.80
2022-10-23T17:59:55.709Z,3.10
2022-10-23T18:02:23.863Z,2.75
2022-10-23T18:04:52.114Z,2.67
2022-10-23T18:07:24.264Z,2.90
2022-10-23T18:09:52.476Z,3.30
2022-10-23T18:12:23.516Z,2.80
2022-10-23T18:14:53.796Z,2.85
2022-10-23T18:17:21.946Z,2.95
2022-10-23T18:23:04.744Z,2.92
2022-10-23T18:25:32.691Z,2.90
2022-10-23T18:28:02.480Z,2.83
2022-10-23T18:30:30.887Z,2.75
2022-10-23T18:33:00.095Z,2.80
2022-10-23T18:35:30.702Z,3.00
2022-10-23T18:37:58.485Z,3.00
2022-10-23T18:42:56.370Z,3.00
2022-10-23T18:45:24.234Z,3.20
2022-10-23T18:47:52.440Z,3.30
2022-10-23T18:50:23.502Z,2.65
2022-10-23T18:52:51.465Z,2.88
2022-10-23T18:55:19.510Z,2.85
2022-10-23T18:57:48.783Z,3.40
2022-10-23T19:00:17.077Z,2.72
2022-10-23T19:02:47.665Z,3.00
2022-10-23T19:05:17.972Z,3.08
2022-10-23T19:07:47.230Z,3.25
2022-10-23T19:10:18.007Z,3.47
2022-10-23T19:12:45.919Z,3.17
2022-10-23T19:15:16.546Z,2.90
2022-10-23T19:17:44.406Z,3.08
2022-10-23T19:20:15.559Z,3.00
2022-10-23T19:22:47.605Z,3.45
2022-10-23T19:25:20.567Z,3.38
2022-10-23T19:27:48.930Z,2.95
2022-10-23T19:30:21.916Z,3.35
2022-10-23T19:32:51.020Z,3.28
2022-10-23T19:35:21.289Z,3.08
2022-10-23T19:37:50.317Z,2.83
2022-10-23T19:40:18.268Z,3.03
2022-10-23T19:42:46.116Z,2.83
2022-10-23T19:47:45.255Z,2.97
2022-10-23T19:50:13.646Z,2.85
2022-10-23T19:52:41.718Z,2.92
2022-10-23T19:55:10.258Z,2.80
2022-10-23T19:57:38.277Z,3.20
2022-10-23T20:00:08.490Z,3.00
2022-10-23T20:02:36.971Z,3.05
2022-10-23T20:05:07.674Z,3.10
2022-10-23T20:07:36.079Z,3.20
2022-10-23T20:10:04.817Z,2.83
2022-10-23T20:12:32.739Z,3.03
2022-10-23T20:15:00.665Z,2.80
2022-10-23T20:17:28.329Z,2.90
2022-10-23T20:19:56.591Z,2.90
2022-10-23T20:22:25.639Z,2.10
2022-10-23T20:24:53.503Z,2.28
2022-10-23T20:27:21.190Z,2.17
2022-10-23T20:29:49.238Z,1.92
2022-10-23T20:32:17.400Z,2.28
2022-10-23T20:34:45.070Z,2.00
2022-10-23T20:37:12.686Z,2.30
2022-10-23T20:39:41.774Z,1.55
2022-10-23T20:42:09.496Z,2.33
2022-10-23T20:44:37.130Z,1.70
2022-10-23T20:47:04.823Z,1.80
2022-10-23T20:49:32.463Z,1.40
2022-10-23T20:52:00.141Z,1.65
2022-10-23T20:56:58.804Z,1.25
2022-10-23T20:59:26.920Z,1.40
2022-10-23T21:01:56.420Z,1.25
2022-10-23T21:04:27.486Z,1.23
2022-10-23T21:07:14.577Z,1.20
2022-10-23T21:09:42.622Z,1.33
2022-10-23T21:12:11.642Z,1.27
2022-10-23T21:14:39.306Z,1.00
2022-10-23T21:17:08.493Z,0.90
2022-10-23T21:19:36.569Z,1.08
2022-10-23T21:22:04.469Z,1.10
2022-10-23T21:26:59.597Z,0.80
2022-10-23T21:29:28.689Z,1.17
2022-10-23T21:31:58.799Z,1.00
2022-10-23T21:34:27.628Z,1.20
2022-10-23T21:39:43.530Z,1.10
2022-10-23T21:42:11.368Z,0.90
2022-10-23T21:47:08.170Z,1.10
2022-10-23T21:49:35.826Z,1.08
2022-10-23T21:52:03.503Z,1.00
2022-10-23T21:54:31.089Z,1.00
2022-10-23T21:56:58.736Z,1.05
2022-10-23T21:59:30.279Z,1.00
2022-10-23T22:02:00.898Z,0.95
2022-10-23T22:04:28.573Z,1.08
2022-10-23T22:06:56.241Z,1.00
2022-10-23T22:09:24.598Z,1.33
2022-10-23T22:11:53.271Z,0.90
2022-10-23T22:14:21.798Z,0.90
2022-10-23T22:16:50.090Z,1.05
2022-10-23T22:19:21.306Z,1.20
2022-10-23T22:21:50.139Z,1.25
2022-10-23T22:24:18.491Z,1.08
2022-10-23T22:26:49.202Z,1.25
2022-10-23T22:29:20.480Z,1.25
2022-10-23T22:31:49.774Z,1.33
2022-10-23T22:34:27.082Z,1.20
2022-10-23T22:37:10.081Z,1.40
2022-10-23T22:39:38.378Z,1.88
2022-10-23T22:42:06.081Z,1.60
2022-10-23T22:44:33.734Z,1.80
2022-10-23T22:47:01.338Z,1.73
2022-10-23T22:49:30.556Z,1.50
2022-10-23T22:51:58.174Z,1.90
2022-10-23T22:54:25.871Z,1.70
2022-10-23T22:56:53.522Z,2.08
2022-10-23T22:59:21.162Z,1.80
2022-10-23T23:01:50.201Z,1.50
2022-10-23T23:04:37.398Z,1.40
2022-10-23T23:07:08.023Z,1.55
2022-10-23T23:09:38.289Z,1.45
2022-10-23T23:12:06.135Z,1.42
2022-10-23T23:17:01.441Z,1.70
2022-10-23T23:19:29.057Z,2.03
2022-10-23T23:21:57.786Z,1.50
2022-10-23T23:24:27.244Z,1.77
2022-10-23T23:26:54.885Z,1.42
2022-10-23T23:29:22.648Z,1.20
2022-10-23T23:31:50.370Z,1.63
2022-10-23T23:34:18.053Z,1.65
2022-10-23T23:36:45.724Z,1.65
2022-10-23T23:39:13.351Z,1.70
2022-10-23T23:41:42.380Z,1.83
2022-10-23T23:44:10.593Z,1.60
2022-10-23T23:46:38.196Z,1.90
2022-10-23T23:49:05.851Z,1.92
2022-10-23T23:51:33.498Z,2.00
2022-10-23T23:54:01.136Z,2.00
2022-10-23T23:56:29.105Z,2.40
2022-10-23T23:58:58.467Z,2.05
